createdAt,value
2022-12-17T00:03:59.264Z,101013.47
2022-12-17T00:08:15.169Z,101004.94
2022-12-17T00:12:30.447Z,101002.38
2022-12-17T00:16:48.548Z,100997.50
2022-12-17T00:21:10.410Z,101002.69
2022-12-17T00:25:26.526Z,101000.19
2022-12-17T00:29:42.411Z,100992.72
2022-12-17T00:33:59.936Z,100993.31
2022-12-17T00:38:15.404Z,100991.22
2022-12-17T00:42:33.003Z,100996.06
2022-12-17T00:46:48.380Z,100996.56
2022-12-17T00:51:06.128Z,100994.19
2022-12-17T00:55:21.903Z,100982.06
2022-12-17T00:59:37.536Z,100975.97
2022-12-17T01:03:53.176Z,100982.84
2022-12-17T01:08:11.787Z,100975.22
2022-12-17T01:12:27.697Z,100979.69
2022-12-17T01:16:43.253Z,100977.00
2022-12-17T01:20:59.175Z,100962.72
2022-12-17T01:25:25.061Z,100952.72
2022-12-17T01:29:51.814Z,100942.03
2022-12-17T01:34:06.329Z,100938.22
2022-12-17T01:38:24.480Z,100943.72
2022-12-17T01:42:50.427Z,100935.53
2022-12-17T01:47:08.643Z,100943.78
2022-12-17T01:51:24.443Z,100941.13
2022-12-17T01:55:40.591Z,100934.09
2022-12-17T02:00:01.586Z,100933.63
2022-12-17T02:04:17.337Z,100926.81
2022-12-17T02:08:41.846Z,100924.44
2022-12-17T02:13:01.384Z,100922.00
2022-12-17T02:17:21.528Z,100905.47
2022-12-17T02:21:38.676Z,100930.22
2022-12-17T02:25:58.185Z,100918.28
2022-12-17T02:30:19.613Z,100921.19
2022-12-17T02:34:35.871Z,100922.75
2022-12-17T02:38:56.932Z,100933.81
2022-12-17T02:43:13.971Z,100913.34
2022-12-17T02:47:36.550Z,100901.59
2022-12-17T02:51:52.552Z,100923.78
2022-12-17T02:56:07.693Z,100906.16
2022-12-17T03:00:24.708Z,100906.44
2022-12-17T03:04:42.047Z,100904.50
2022-12-17T03:08:57.859Z,100922.63
2022-12-17T03:13:12.742Z,100912.78
2022-12-17T03:17:28.111Z,100918.72
2022-12-17T03:21:46.037Z,100896.97
2022-12-17T03:25:58.179Z,100870.09
2022-12-17T03:30:13.546Z,100867.16
2022-12-17T03:34:29.292Z,100879.03
2022-12-17T03:38:46.346Z,100878.47
2022-12-17T03:43:01.855Z,100846.34
2022-12-17T03:47:17.622Z,100849.84
2022-12-17T03:51:33.175Z,100832.09
2022-12-17T03:55:51.092Z,100846.41
2022-12-17T04:00:06.274Z,100828.53
2022-12-17T04:04:26.766Z,100840.22
2022-12-17T04:08:42.405Z,100830.94
2022-12-17T04:13:00.153Z,100812.13
2022-12-17T04:17:15.579Z,100817.78
2022-12-17T04:21:31.222Z,100830.75
2022-12-17T04:25:46.420Z,100826.09
2022-12-17T04:30:04.096Z,100821.19
2022-12-17T04:34:19.662Z,100814.22
2022-12-17T04:38:35.107Z,100818.34
2022-12-17T04:42:50.312Z,100808.00
2022-12-17T04:47:08.060Z,100799.84
2022-12-17T04:51:23.732Z,100793.38
2022-12-17T04:55:39.882Z,100817.78
2022-12-17T04:59:54.787Z,100833.97
2022-12-17T05:04:12.376Z,100844.31
2022-12-17T05:08:27.779Z,100856.69
2022-12-17T05:12:45.236Z,100856.53
2022-12-17T05:17:06.371Z,100873.63
2022-12-17T05:21:24.435Z,100889.31
2022-12-17T05:25:39.902Z,100893.63
2022-12-17T05:29:55.651Z,100887.19
2022-12-17T05:34:11.543Z,100879.78
2022-12-17T05:38:29.248Z,100866.69
2022-12-17T05:42:44.866Z,100882.91
2022-12-17T05:47:00.474Z,100912.81
2022-12-17T05:51:16.426Z,100908.41
2022-12-17T05:55:34.065Z,100918.13
2022-12-17T05:59:49.714Z,100915.94
2022-12-17T06:04:05.040Z,100908.78
2022-12-17T06:08:20.977Z,100899.25
2022-12-17T06:12:38.688Z,100904.63
2022-12-17T06:16:54.442Z,100888.25
2022-12-17T06:21:10.954Z,100867.13
2022-12-17T06:25:26.634Z,100855.69
2022-12-17T06:29:44.296Z,100871.31
2022-12-17T06:33:59.738Z,100850.13
2022-12-17T06:38:18.441Z,100830.44
2022-12-17T06:42:34.354Z,100837.13
2022-12-17T06:46:52.087Z,100842.50
2022-12-17T06:51:07.423Z,100827.00
2022-12-17T06:55:23.358Z,100844.66
2022-12-17T06:59:39.058Z,100839.59
2022-12-17T07:03:56.630Z,100856.22
2022-12-17T07:08:14.817Z,100830.91
2022-12-17T07:12:29.728Z,100826.09
2022-12-17T07:16:45.318Z,100828.19
2022-12-17T07:21:03.075Z,100827.59
2022-12-17T07:25:15.044Z,100828.16
2022-12-17T07:29:30.999Z,100819.81
2022-12-17T07:33:46.827Z,100821.84
2022-12-17T07:38:04.461Z,100831.72
2022-12-17T07:42:20.229Z,100847.22
2022-12-17T07:46:36.170Z,100867.88
2022-12-17T07:50:51.830Z,100887.00
2022-12-17T07:55:12.064Z,100854.69
2022-12-17T07:59:30.040Z,100873.09
2022-12-17T08:03:45.718Z,100922.66
2022-12-17T08:08:01.731Z,100984.56
2022-12-17T08:12:19.381Z,101086.31
2022-12-17T08:16:35.111Z,101146.53
2022-12-17T08:20:50.690Z,101114.63
2022-12-17T08:25:06.279Z,101125.22
2022-12-17T08:29:24.153Z,101146.84
2022-12-17T08:33:39.634Z,101134.47
2022-12-17T08:37:55.541Z,101164.94
2022-12-17T08:42:10.548Z,101153.50
2022-12-17T08:46:28.705Z,101166.09
2022-12-17T08:50:44.602Z,101156.75
2022-12-17T08:55:00.012Z,101156.56
2022-12-17T08:59:30.179Z,101157.72
2022-12-17T09:03:47.633Z,101144.69
2022-12-17T09:08:02.969Z,101159.84
2022-12-17T09:12:18.764Z,101152.78
2022-12-17T09:16:36.776Z,101147.44
2022-12-17T09:20:54.485Z,101155.28
2022-12-17T09:25:09.564Z,101183.03
2022-12-17T09:29:25.208Z,101184.69
2022-12-17T09:33:41.625Z,101196.72
2022-12-17T09:37:59.017Z,101166.00
2022-12-17T09:42:18.424Z,101143.06
2022-12-17T09:46:38.675Z,101136.13
2022-12-17T09:50:54.226Z,101096.59
2022-12-17T09:55:26.579Z,101075.13
2022-12-17T09:59:59.124Z,101167.66
2022-12-17T10:04:14.899Z,101109.53
2022-12-17T10:08:32.914Z,101074.91
2022-12-17T10:12:50.475Z,101050.38
2022-12-17T10:17:11.688Z,101012.59
2022-12-17T10:21:29.785Z,100984.06
2022-12-17T10:25:45.621Z,100993.84
2022-12-17T10:30:03.318Z,100999.81
2022-12-17T10:34:18.320Z,101000.25
2022-12-17T10:38:38.549Z,101058.06
2022-12-17T10:42:56.798Z,101041.41
2022-12-17T10:47:17.311Z,101029.75
2022-12-17T10:51:37.340Z,101025.38
2022-12-17T10:55:53.753Z,101053.53
2022-12-17T11:00:12.662Z,101036.53
2022-12-17T11:04:43.716Z,101052.22
2022-12-17T11:09:11.836Z,101068.03
2022-12-17T11:13:31.370Z,101070.06
2022-12-17T11:17:47.229Z,101052.59
2022-12-17T11:22:06.700Z,101029.06
2022-12-17T11:26:24.862Z,100990.00
2022-12-17T11:30:40.836Z,100981.41
2022-12-17T11:35:04.704Z,100971.00
2022-12-17T11:39:25.828Z,100954.34
2022-12-17T11:43:46.548Z,100977.84
2022-12-17T11:48:06.640Z,100975.22
2022-12-17T11:52:27.088Z,101014.53
2022-12-17T11:56:45.733Z,101017.28
2022-12-17T12:01:05.388Z,101027.13
2022-12-17T12:05:29.031Z,101046.28
2022-12-17T12:09:47.152Z,101034.84
2022-12-17T12:14:07.885Z,101026.06
2022-12-17T12:18:26.239Z,101038.22
2022-12-17T12:22:48.129Z,101016.38
2022-12-17T12:27:19.470Z,100999.84
2022-12-17T12:31:43.620Z,101006.81
2022-12-17T12:36:00.107Z,100993.78
2022-12-17T12:40:18.855Z,101014.78
2022-12-17T12:44:40.154Z,100965.88
2022-12-17T12:49:02.817Z,100927.41
2022-12-17T12:53:24.139Z,100969.31
2022-12-17T12:57:47.376Z,100978.09
2022-12-17T13:02:11.526Z,101007.84
2022-12-17T13:06:13.637Z,101023.66
2022-12-17T13:10:24.256Z,101058.63
2022-12-17T13:14:25.138Z,101042.91
2022-12-17T13:18:27.863Z,101028.09
2022-12-17T13:22:33.250Z,100986.16
2022-12-17T13:26:44.164Z,100980.94
2022-12-17T13:30:43.647Z,101052.69
2022-12-17T13:34:51.620Z,101017.72
2022-12-17T13:38:58.037Z,101061.47
2022-12-17T13:42:57.450Z,101074.59
2022-12-17T13:46:56.731Z,101074.63
2022-12-17T13:50:56.336Z,101074.63
2022-12-17T13:55:07.963Z,101083.38
2022-12-17T13:59:09.551Z,101074.66
2022-12-17T14:03:11.685Z,101080.78
2022-12-17T14:07:11.892Z,101092.16
2022-12-17T14:11:29.825Z,101095.59
2022-12-17T14:15:31.550Z,101099.97
2022-12-17T14:19:30.758Z,101101.63
2022-12-17T14:23:30.978Z,101110.34
2022-12-17T14:27:35.935Z,101120.78
2022-12-17T14:31:35.330Z,101146.13
2022-12-17T14:35:36.848Z,101152.06
2022-12-17T14:39:36.040Z,101150.25
2022-12-17T14:43:37.441Z,101158.00
2022-12-17T14:47:37.663Z,101164.94
2022-12-17T14:51:38.486Z,101166.59
2022-12-17T14:55:39.947Z,101177.13
2022-12-17T14:59:43.030Z,101174.53
2022-12-17T15:03:43.553Z,101181.59
2022-12-17T15:07:42.841Z,101191.22
2022-12-17T15:11:42.050Z,101201.56
2022-12-17T15:15:43.524Z,101204.09
2022-12-17T15:19:42.690Z,101223.19
2022-12-17T15:23:44.855Z,101220.50
2022-12-17T15:27:44.105Z,101233.53
2022-12-17T15:31:45.991Z,101246.47
2022-12-17T15:35:45.324Z,101245.44
2022-12-17T15:39:44.758Z,101260.13
2022-12-17T15:43:44.053Z,101269.66
2022-12-17T15:47:48.327Z,101285.41
2022-12-17T15:51:47.500Z,101286.91
2022-12-17T15:55:46.700Z,101295.38
2022-12-17T15:59:45.992Z,101299.66
2022-12-17T16:03:47.602Z,101319.44
2022-12-17T16:07:49.968Z,101329.84
2022-12-17T16:11:49.160Z,101351.34
2022-12-17T16:16:02.138Z,101364.13
2022-12-17T16:20:05.249Z,101359.59
2022-12-17T16:24:05.264Z,101361.06
2022-12-17T16:28:04.532Z,101376.41
2022-12-17T16:32:03.788Z,101393.78
2022-12-17T16:36:05.457Z,101418.13
2022-12-17T16:40:05.139Z,101403.34
2022-12-17T16:44:04.928Z,101412.00
2022-12-17T16:48:04.265Z,101406.91
2022-12-17T16:52:05.978Z,101400.75
2022-12-17T16:56:05.246Z,101420.47
2022-12-17T17:00:04.456Z,101423.66
2022-12-17T17:04:03.789Z,101419.22
2022-12-17T17:08:05.362Z,101433.31
2022-12-17T17:12:04.682Z,101445.25
2022-12-17T17:16:04.399Z,101436.66
2022-12-17T17:20:03.697Z,101451.94
2022-12-17T17:24:06.726Z,101451.03
2022-12-17T17:28:05.805Z,101454.59
2022-12-17T17:32:13.425Z,101465.31
2022-12-17T17:36:14.441Z,101483.63
2022-12-17T17:40:16.676Z,101494.84
2022-12-17T17:44:17.224Z,101500.88
2022-12-17T17:48:16.462Z,101508.56
2022-12-17T17:52:15.723Z,101513.69
2022-12-17T17:56:17.982Z,101516.78
2022-12-17T18:00:17.199Z,101521.19
2022-12-17T18:04:18.561Z,101511.56
2022-12-17T18:08:17.860Z,101512.81
2022-12-17T18:12:35.945Z,101508.63
2022-12-17T18:16:38.117Z,101519.84
2022-12-17T18:20:37.518Z,101529.03
2022-12-17T18:24:36.873Z,101529.09
2022-12-17T18:28:38.758Z,101515.66
2022-12-17T18:32:38.210Z,101514.78
2022-12-17T18:36:38.646Z,101522.75
2022-12-17T18:40:38.079Z,101520.25
2022-12-17T18:44:41.199Z,101538.41
2022-12-17T18:48:40.785Z,101538.41
2022-12-17T18:52:39.781Z,101555.03
2022-12-17T18:57:00.407Z,101562.75
2022-12-17T19:01:00.559Z,101570.75
2022-12-17T19:04:59.863Z,101578.59
2022-12-17T19:08:58.842Z,101586.31
2022-12-17T19:12:58.052Z,101591.63
2022-12-17T19:16:59.546Z,101605.47
2022-12-17T19:20:58.940Z,101605.63
2022-12-17T19:24:58.145Z,101613.53
2022-12-17T19:28:57.732Z,101618.63
2022-12-17T19:32:59.531Z,101630.78
2022-12-17T19:36:58.708Z,101629.97
2022-12-17T19:40:57.973Z,101625.03
2022-12-17T19:44:57.232Z,101633.38
2022-12-17T19:48:58.867Z,101638.69
2022-12-17T19:52:58.102Z,101635.88
2022-12-17T19:56:57.377Z,101640.00
2022-12-17T20:00:56.173Z,101648.41
2022-12-17T20:04:57.646Z,101650.16
2022-12-17T20:08:56.395Z,101666.78
2022-12-17T20:12:55.599Z,101677.22
2022-12-17T20:16:56.237Z,101686.66
2022-12-17T20:21:04.747Z,101699.78
2022-12-17T20:25:07.322Z,101705.84
2022-12-17T20:29:06.549Z,101703.97
2022-12-17T20:33:05.368Z,101711.63
2022-12-17T20:37:06.753Z,101708.94
2022-12-17T20:41:10.205Z,101713.25
2022-12-17T20:45:09.346Z,101713.03
2022-12-17T20:49:08.917Z,101722.38
2022-12-17T20:53:10.651Z,101746.63
2022-12-17T20:57:09.861Z,101744.03
2022-12-17T21:01:10.210Z,101743.03
2022-12-17T21:05:10.169Z,101744.75
2022-12-17T21:09:11.873Z,101757.41
2022-12-17T21:13:28.225Z,101766.09
2022-12-17T21:17:26.878Z,101769.56
2022-12-17T21:21:27.580Z,101776.28
2022-12-17T21:25:29.041Z,101774.22
2022-12-17T21:29:27.951Z,101783.69
2022-12-17T21:33:27.562Z,101787.25
2022-12-17T21:37:26.946Z,101779.19
2022-12-17T21:41:29.787Z,101781.72
2022-12-17T21:45:28.468Z,101783.31
2022-12-17T21:49:28.891Z,101789.25
2022-12-17T21:53:28.447Z,101797.13
2022-12-17T21:57:29.960Z,101791.75
2022-12-17T22:01:31.490Z,101782.25
2022-12-17T22:05:30.975Z,101787.56
2022-12-17T22:09:47.677Z,101787.31
2022-12-17T22:14:15.274Z,101788.06
2022-12-17T22:18:18.383Z,101799.34
2022-12-17T22:22:18.006Z,101801.59
2022-12-17T22:58:09.751Z,101851.41
2022-12-17T23:02:10.000Z,101858.38
2022-12-17T23:06:10.009Z,101859.22
2022-12-17T23:10:09.528Z,101864.66
2022-12-17T23:14:11.027Z,101871.06
2022-12-17T23:18:10.243Z,101879.50
2022-12-17T23:22:09.519Z,101896.38
2022-12-17T23:26:09.997Z,101910.97
2022-12-17T23:30:12.269Z,101925.09
2022-12-17T23:34:11.485Z,101936.31
2022-12-17T23:38:10.185Z,101935.38
2022-12-17T23:42:09.456Z,101928.69
2022-12-17T23:46:11.542Z,101933.97
2022-12-17T23:50:11.805Z,101936.31
2022-12-17T23:54:11.055Z,101945.69
2022-12-17T23:58:09.730Z,101966.53
